Time;durP1;ratioP1;P1;durP2;ratioP2;P2;SDS_P1;SDS_P2;PMS_P1;PMS_P2;Temp;Humidity;BMP_temperature;BMP_pressure;BME280_temperature;BME280_humidity;BME280_pressure;Samples;Min_cycle;Max_cycle;Signal;HPM_P1;HPM_P2
2022/09/23 00:01:01;;;;;;;;;;;10.50;99.90;;;;;;5077209;28;19935;-76
2022/09/23 00:03:29;;;;;;;;;;;10.50;99.90;;;;;;5073581;28;20022;-76
2022/09/23 00:06:00;;;;;;;;;;;10.50;99.90;;;;;;5069490;28;19928;-76
2022/09/23 00:08:27;;;;;;;;;;;10.50;99.90;;;;;;5070191;28;19928;-76
2022/09/23 00:10:55;;;;;;;;;;;10.60;99.90;;;;;;5068222;28;20043;-77
2022/09/23 00:13:23;;;;;;;;;;;10.60;99.90;;;;;;5075712;28;19928;-76
2022/09/23 00:15:51;;;;;;;;;;;10.50;99.90;;;;;;5081259;28;19928;-76
2022/09/23 00:18:19;;;;;;;;;;;10.50;99.90;;;;;;5075640;28;19959;-76
2022/09/23 00:20:46;;;;;;;;;;;10.50;99.90;;;;;;5081501;28;19928;-76
2022/09/23 00:23:13;;;;;;;;;;;10.50;99.90;;;;;;5081045;28;19935;-76
2022/09/23 00:25:40;;;;;;;;;;;10.50;99.90;;;;;;5064275;28;20308;-76
2022/09/23 00:28:08;;;;;;;;;;;10.50;99.90;;;;;;5067177;28;19964;-77
2022/09/23 00:30:35;;;;;;;;;;;10.50;99.90;;;;;;5068702;28;19937;-76
2022/09/23 00:33:03;;;;;;;;;;;10.50;99.90;;;;;;5077086;28;19950;-76
2022/09/23 00:35:31;;;;;;;;;;;10.40;99.90;;;;;;5078874;28;20023;-76
2022/09/23 00:37:58;;;;;;;;;;;10.40;99.90;;;;;;5074286;28;20486;-76
2022/09/23 00:40:25;;;;;;;;;;;10.40;99.90;;;;;;5093695;28;19939;-76
2022/09/23 00:42:52;;;;;;;;;;;10.40;99.90;;;;;;5088337;28;19928;-75
2022/09/23 00:45:19;;;;;;;;;;;10.40;99.90;;;;;;5060152;28;20419;-73
2022/09/23 00:47:48;;;;;;;;;;;10.40;99.90;;;;;;5071347;28;19941;-73
2022/09/23 00:50:21;;;;;;;;;;;10.30;99.90;;;;;;5071185;28;19935;-73
2022/09/23 00:52:49;;;;;;;;;;;10.30;99.90;;;;;;5068541;28;19947;-73
2022/09/23 00:55:19;;;;;;;;;;;10.30;99.90;;;;;;5078949;28;20023;-72
2022/09/23 00:57:47;;;;;;;;;;;10.30;99.90;;;;;;5076370;28;20022;-76
2022/09/23 01:00:17;;;;;;;;;;;10.20;99.90;;;;;;5073533;28;20354;-75
2022/09/23 01:02:45;;;;;;;;;;;10.20;99.90;;;;;;5079282;28;20072;-72
2022/09/23 01:05:12;;;;;;;;;;;10.20;99.90;;;;;;5078277;28;19963;-76
2022/09/23 01:07:41;;;;;;;;;;;10.10;99.90;;;;;;5077773;28;19935;-76
2022/09/23 01:10:10;;;;;;;;;;;10.10;99.90;;;;;;5082313;28;19978;-76
2022/09/23 01:12:51;;;;;;;;;;;10.10;99.90;;;;;;5058324;28;19935;-76
2022/09/23 01:15:20;;;;;;;;;;;10.10;99.90;;;;;;5072504;28;20502;-76
2022/09/23 01:17:53;;;;;;;;;;;10.00;99.90;;;;;;5072001;28;19927;-76
2022/09/23 01:20:58;;;;;;;;;;;10.00;99.90;;;;;;5075083;28;19928;-75
2022/09/23 01:24:15;;;;;;;;;;;10.00;99.90;;;;;;5066262;28;19939;-75
2022/09/23 01:26:56;;;;;;;;;;;10.00;99.90;;;;;;5049310;28;19929;-75
2022/09/23 01:30:04;;;;;;;;;;;10.00;99.90;;;;;;5078797;28;20817;-75
2022/09/23 01:32:49;;;;;;;;;;;9.90;99.90;;;;;;5027192;28;19929;-74
2022/09/23 01:35:25;;;;;;;;;;;9.90;99.90;;;;;;5022400;28;19988;-74
2022/09/23 01:37:56;;;;;;;;;;;9.90;99.90;;;;;;5045380;28;20051;-75
2022/09/23 01:40:27;;;;;;;;;;;9.80;99.90;;;;;;5062443;28;20002;-74
2022/09/23 01:42:56;;;;;;;;;;;9.80;99.90;;;;;;5072881;28;19990;-74
2022/09/23 01:45:27;;;;;;;;;;;9.80;99.90;;;;;;5090427;28;19935;-75
2022/09/23 01:47:58;;;;;;;;;;;9.80;99.90;;;;;;5072809;28;20023;-76
2022/09/23 01:53:12;;;;;;;;;;;9.70;99.90;;;;;;5073658;28;19928;-75
2022/09/23 01:55:42;;;;;;;;;;;9.60;99.90;;;;;;5085545;28;20032;-75
2022/09/23 01:58:13;;;;;;;;;;;9.60;99.90;;;;;;5064260;28;19932;-75
2022/09/23 02:00:44;;;;;;;;;;;9.60;99.90;;;;;;5052498;28;19980;-75
2022/09/23 02:03:15;;;;;;;;;;;9.50;99.90;;;;;;5078418;28;19975;-75
2022/09/23 02:05:46;;;;;;;;;;;9.50;99.90;;;;;;5062213;28;19933;-75
2022/09/23 02:08:16;;;;;;;;;;;9.50;99.90;;;;;;5074101;28;19983;-75
2022/09/23 02:10:46;;;;;;;;;;;9.50;99.90;;;;;;5053425;28;19983;-74
2022/09/23 02:13:16;;;;;;;;;;;9.50;99.90;;;;;;5072624;28;19928;-75
2022/09/23 02:15:48;;;;;;;;;;;9.50;99.90;;;;;;5051190;28;20412;-74
2022/09/23 02:18:19;;;;;;;;;;;9.50;99.90;;;;;;5065215;28;19928;-75
2022/09/23 02:20:48;;;;;;;;;;;9.50;99.90;;;;;;5069765;28;20371;-75
2022/09/23 02:23:19;;;;;;;;;;;9.50;99.90;;;;;;5057263;28;19933;-75
2022/09/23 02:25:54;;;;;;;;;;;9.50;99.90;;;;;;5067816;28;19928;-75
2022/09/23 02:28:27;;;;;;;;;;;9.50;99.90;;;;;;5076106;28;19935;-75
2022/09/23 02:31:00;;;;;;;;;;;9.50;99.90;;;;;;5074765;28;19935;-74
2022/09/23 02:33:33;;;;;;;;;;;9.50;99.90;;;;;;5070829;28;19932;-75
2022/09/23 02:36:05;;;;;;;;;;;9.50;99.90;;;;;;5059815;28;19932;-74
2022/09/23 02:38:35;;;;;;;;;;;9.50;99.90;;;;;;5080989;28;19928;-74
2022/09/23 02:41:08;;;;;;;;;;;9.50;99.90;;;;;;5088419;28;19936;-75
2022/09/23 02:43:39;;;;;;;;;;;9.50;99.90;;;;;;5076272;28;20301;-75
2022/09/23 02:46:07;;;;;;;;;;;9.50;99.90;;;;;;5065286;28;19929;-75
2022/09/23 02:48:39;;;;;;;;;;;9.50;99.90;;;;;;5068818;28;19927;-75
2022/09/23 02:51:08;;;;;;;;;;;9.50;99.90;;;;;;5076896;28;19935;-76
2022/09/23 02:53:36;;;;;;;;;;;9.50;99.90;;;;;;5082550;28;19935;-72
2022/09/23 02:56:11;;;;;;;;;;;9.50;99.90;;;;;;5073728;28;19936;-72
2022/09/23 02:58:39;;;;;;;;;;;9.40;99.90;;;;;;5087979;28;19954;-72
2022/09/23 03:01:11;;;;;;;;;;;9.40;99.90;;;;;;5072895;28;20026;-73
2022/09/23 03:03:45;;;;;;;;;;;9.40;99.90;;;;;;5062332;28;19952;-73
2022/09/23 03:06:20;;;;;;;;;;;9.30;99.90;;;;;;5075462;28;19928;-73
2022/09/23 03:08:52;;;;;;;;;;;9.30;99.90;;;;;;5079861;28;19928;-73
2022/09/23 03:11:20;;;;;;;;;;;9.30;99.90;;;;;;5090253;28;20008;-71
2022/09/23 03:13:54;;;;;;;;;;;9.30;99.90;;;;;;5079648;28;19928;-72
2022/09/23 03:16:30;;;;;;;;;;;9.20;99.90;;;;;;5064298;28;19932;-73
2022/09/23 03:19:11;;;;;;;;;;;9.20;99.90;;;;;;5076491;28;19928;-72
2022/09/23 03:21:41;;;;;;;;;;;9.20;99.90;;;;;;5062864;28;19932;-72
2022/09/23 03:24:09;;;;;;;;;;;9.20;99.90;;;;;;5069222;28;20038;-72
2022/09/23 03:26:38;;;;;;;;;;;9.20;99.90;;;;;;5071230;28;19974;-72
2022/09/23 03:29:07;;;;;;;;;;;9.20;99.90;;;;;;5083306;28;19928;-71
2022/09/23 03:31:36;;;;;;;;;;;9.20;99.90;;;;;;5084568;28;19928;-71
2022/09/23 03:34:08;;;;;;;;;;;9.20;99.90;;;;;;5075197;28;19928;-72
2022/09/23 03:36:52;;;;;;;;;;;9.20;99.90;;;;;;5074621;28;19929;-72
2022/09/23 03:39:34;;;;;;;;;;;9.30;99.90;;;;;;5087341;28;19928;-73
2022/09/23 03:42:05;;;;;;;;;;;9.30;99.90;;;;;;5074881;28;19932;-73
2022/09/23 03:44:38;;;;;;;;;;;9.30;99.90;;;;;;5071979;28;19978;-71
2022/09/23 03:47:06;;;;;;;;;;;9.30;99.90;;;;;;5091402;28;19935;-73
2022/09/23 03:49:36;;;;;;;;;;;9.20;99.90;;;;;;5090050;28;19931;-73
2022/09/23 03:52:03;;;;;;;;;;;9.30;99.90;;;;;;5059603;28;19928;-73
2022/09/23 03:54:31;;;;;;;;;;;9.30;99.90;;;;;;5069056;28;19936;-72
2022/09/23 03:56:58;;;;;;;;;;;9.30;99.90;;;;;;5079771;28;19927;-72
2022/09/23 03:59:26;;;;;;;;;;;9.30;99.90;;;;;;5076103;28;19929;-72
2022/09/23 04:01:54;;;;;;;;;;;9.30;99.90;;;;;;5070824;28;19936;-72
2022/09/23 04:04:21;;;;;;;;;;;9.30;99.90;;;;;;5083766;28;19936;-72
2022/09/23 04:06:53;;;;;;;;;;;9.30;99.90;;;;;;5087558;28;20384;-73
2022/09/23 04:09:20;;;;;;;;;;;9.30;99.90;;;;;;5055295;28;20023;-76
2022/09/23 04:11:48;;;;;;;;;;;9.30;99.90;;;;;;5061342;28;20397;-78
2022/09/23 04:14:16;;;;;;;;;;;9.40;99.90;;;;;;5050190;28;20004;-75
2022/09/23 04:16:43;;;;;;;;;;;9.40;99.90;;;;;;5067571;28;19935;-79
2022/09/23 04:19:12;;;;;;;;;;;9.40;99.90;;;;;;5050422;28;20295;-78
2022/09/23 04:21:40;;;;;;;;;;;9.40;99.90;;;;;;5068841;28;20023;-78
2022/09/23 04:24:12;;;;;;;;;;;9.50;99.90;;;;;;5071239;28;20276;-78
2022/09/23 04:26:40;;;;;;;;;;;9.50;99.90;;;;;;5096238;22;19932;-74
2022/09/23 04:29:07;;;;;;;;;;;9.60;99.90;;;;;;5067710;28;20403;-73
2022/09/23 04:31:37;;;;;;;;;;;9.60;99.90;;;;;;5036033;28;19963;-74
2022/09/23 04:34:09;;;;;;;;;;;9.70;99.90;;;;;;5053222;28;19929;-74
2022/09/23 04:36:36;;;;;;;;;;;9.80;99.90;;;;;;5035353;28;19929;-79
2022/09/23 04:39:04;;;;;;;;;;;9.80;99.90;;;;;;5048318;28;19929;-74
2022/09/23 04:41:34;;;;;;;;;;;9.90;99.90;;;;;;5049208;28;20420;-75
2022/09/23 04:44:02;;;;;;;;;;;9.90;99.90;;;;;;5051217;28;20355;-74
2022/09/23 04:46:30;;;;;;;;;;;10.00;99.90;;;;;;5042605;28;19929;-75
2022/09/23 04:48:57;;;;;;;;;;;10.00;99.90;;;;;;5036821;28;19959;-77
2022/09/23 04:51:26;;;;;;;;;;;10.10;99.90;;;;;;5038032;28;20420;-79
2022/09/23 04:53:54;;;;;;;;;;;10.10;99.90;;;;;;5049810;28;19929;-75
2022/09/23 04:56:36;;;;;;;;;;;10.20;99.90;;;;;;5049374;28;20274;-77
2022/09/23 04:59:05;;;;;;;;;;;10.20;99.90;;;;;;5034930;28;20031;-77
2022/09/23 05:01:34;;;;;;;;;;;10.30;99.90;;;;;;5041218;28;20005;-73
2022/09/23 05:04:04;;;;;;;;;;;10.40;99.90;;;;;;5048876;28;20436;-74
2022/09/23 05:06:33;;;;;;;;;;;10.50;99.90;;;;;;5045252;28;20424;-75
2022/09/23 05:09:00;;;;;;;;;;;10.60;99.90;;;;;;5049671;28;20352;-73
2022/09/23 05:11:29;;;;;;;;;;;10.70;99.90;;;;;;5052663;28;19975;-74
2022/09/23 05:13:58;;;;;;;;;;;10.70;99.90;;;;;;5048140;28;19972;-74
2022/09/23 05:16:26;;;;;;;;;;;10.80;99.90;;;;;;5064445;28;19928;-74
2022/09/23 05:18:54;;;;;;;;;;;10.80;99.90;;;;;;5054579;28;20381;-76
2022/09/23 05:21:22;;;;;;;;;;;10.80;99.90;;;;;;5031861;28;19933;-76
2022/09/23 05:23:51;;;;;;;;;;;10.80;99.90;;;;;;5038653;28;20011;-74
2022/09/23 05:26:18;;;;;;;;;;;10.80;99.90;;;;;;5039911;28;19936;-75
2022/09/23 05:28:45;;;;;;;;;;;10.80;99.90;;;;;;5038809;28;20331;-75
2022/09/23 05:31:16;;;;;;;;;;;10.80;99.90;;;;;;5045764;28;19929;-76
2022/09/23 05:33:45;;;;;;;;;;;10.70;99.90;;;;;;5050928;28;20289;-80
2022/09/23 05:36:12;;;;;;;;;;;10.80;99.90;;;;;;5050749;28;19933;-74
2022/09/23 05:38:41;;;;;;;;;;;10.80;99.90;;;;;;5038987;28;20023;-75
2022/09/23 05:41:11;;;;;;;;;;;10.80;99.90;;;;;;5032111;28;20023;-76
2022/09/23 05:43:40;;;;;;;;;;;10.80;99.90;;;;;;5036365;28;20339;-74
2022/09/23 05:46:11;;;;;;;;;;;10.90;99.90;;;;;;5047837;28;19929;-74
2022/09/23 05:48:40;;;;;;;;;;;10.90;99.90;;;;;;5044618;28;19935;-75
2022/09/23 05:51:11;;;;;;;;;;;10.90;99.90;;;;;;5023877;28;19940;-75
2022/09/23 05:53:39;;;;;;;;;;;11.00;99.90;;;;;;5048956;28;19935;-81
2022/09/23 05:56:06;;;;;;;;;;;11.00;99.90;;;;;;5041904;28;19975;-81
2022/09/23 05:58:34;;;;;;;;;;;11.00;99.90;;;;;;5052730;28;20599;-81
2022/09/23 06:01:01;;;;;;;;;;;11.10;99.90;;;;;;5047339;28;20398;-80
2022/09/23 06:03:28;;;;;;;;;;;11.20;99.90;;;;;;5049689;28;20369;-81
2022/09/23 06:05:57;;;;;;;;;;;11.30;99.90;;;;;;5047547;28;19933;-81
2022/09/23 06:08:25;;;;;;;;;;;11.40;99.90;;;;;;5031630;28;20166;-80
2022/09/23 06:10:52;;;;;;;;;;;11.50;99.90;;;;;;5032204;28;19929;-78
2022/09/23 06:13:20;;;;;;;;;;;11.50;99.90;;;;;;5034855;28;19937;-80
2022/09/23 06:15:47;;;;;;;;;;;11.60;99.90;;;;;;5045492;28;20033;-79
2022/09/23 06:18:16;;;;;;;;;;;11.70;99.90;;;;;;5017760;28;19929;-82
2022/09/23 06:20:43;;;;;;;;;;;11.80;99.90;;;;;;5035128;28;19935;-80
2022/09/23 06:23:11;;;;;;;;;;;12.00;99.90;;;;;;5035798;28;19929;-81
2022/09/23 06:25:38;;;;;;;;;;;12.10;99.90;;;;;;5050757;28;20565;-79
2022/09/23 06:28:10;;;;;;;;;;;12.30;99.90;;;;;;5017236;28;19954;-78
2022/09/23 06:30:38;;;;;;;;;;;12.30;99.90;;;;;;5034098;28;20388;-80
2022/09/23 06:33:05;;;;;;;;;;;12.40;99.90;;;;;;5033740;28;20290;-81
2022/09/23 06:35:32;;;;;;;;;;;12.50;99.90;;;;;;5052862;28;19932;-80
2022/09/23 06:38:03;;;;;;;;;;;12.60;99.90;;;;;;5033233;28;19971;-81
2022/09/23 06:40:31;;;;;;;;;;;12.60;99.90;;;;;;5022038;28;20030;-73
2022/09/23 06:42:59;;;;;;;;;;;12.90;99.90;;;;;;5040718;28;19928;-72
2022/09/23 06:45:26;;;;;;;;;;;13.50;99.90;;;;;;5039797;28;19929;-73
2022/09/23 06:47:56;;;;;;;;;;;14.30;99.90;;;;;;5024389;28;19929;-73
2022/09/23 06:50:25;;;;;;;;;;;14.70;99.90;;;;;;5041285;28;20400;-73
2022/09/23 06:52:54;;;;;;;;;;;14.70;99.90;;;;;;5040370;28;19933;-73
2022/09/23 06:55:26;;;;;;;;;;;14.60;99.90;;;;;;5044940;28;19987;-73
2022/09/23 06:57:57;;;;;;;;;;;14.30;99.90;;;;;;5045978;28;20024;-74
2022/09/23 07:00:25;;;;;;;;;;;14.30;99.90;;;;;;5043275;28;20496;-81
2022/09/23 07:02:53;;;;;;;;;;;14.30;99.90;;;;;;5022024;28;20047;-81
2022/09/23 07:05:21;;;;;;;;;;;14.70;99.90;;;;;;5047540;28;19935;-81
2022/09/23 07:07:48;;;;;;;;;;;14.90;99.90;;;;;;5030775;28;19929;-82
2022/09/23 07:10:15;;;;;;;;;;;15.60;99.90;;;;;;5041071;28;20334;-82
2022/09/23 07:12:43;;;;;;;;;;;15.70;99.90;;;;;;5046748;28;19968;-80
2022/09/23 07:15:12;;;;;;;;;;;15.50;99.90;;;;;;5045515;28;19929;-83
2022/09/23 07:17:41;;;;;;;;;;;15.30;99.90;;;;;;5045874;28;20341;-82
2022/09/23 07:20:10;;;;;;;;;;;15.10;99.90;;;;;;5046921;28;19962;-80
2022/09/23 07:22:37;;;;;;;;;;;15.00;99.90;;;;;;5046700;28;19963;-82
2022/09/23 07:25:05;;;;;;;;;;;14.80;99.90;;;;;;5047760;28;19929;-80
2022/09/23 07:27:33;;;;;;;;;;;14.70;99.90;;;;;;5045868;28;20027;-83
2022/09/23 07:30:00;;;;;;;;;;;14.60;99.90;;;;;;5019855;28;20373;-81
2022/09/23 07:32:29;;;;;;;;;;;14.50;99.90;;;;;;5047169;28;19929;-81
2022/09/23 07:34:56;;;;;;;;;;;14.50;99.90;;;;;;5050265;28;19928;-82
2022/09/23 07:37:23;;;;;;;;;;;14.40;99.90;;;;;;5015392;28;20295;-80
2022/09/23 07:39:51;;;;;;;;;;;14.30;99.90;;;;;;5038602;28;20001;-82
2022/09/23 07:42:18;;;;;;;;;;;14.30;99.90;;;;;;5041605;28;19933;-72
2022/09/23 07:44:46;;;;;;;;;;;14.20;99.90;;;;;;5049630;28;19936;-74
2022/09/23 07:47:14;;;;;;;;;;;14.20;99.90;;;;;;5031286;28;20328;-74
2022/09/23 07:49:43;;;;;;;;;;;14.20;99.90;;;;;;5032746;28;19929;-73
2022/09/23 07:52:10;;;;;;;;;;;14.10;99.90;;;;;;5047564;28;19928;-73
2022/09/23 07:54:37;;;;;;;;;;;14.10;99.90;;;;;;5047551;28;19937;-73
2022/09/23 07:57:04;;;;;;;;;;;14.10;99.90;;;;;;5049026;28;19929;-73
2022/09/23 07:59:31;;;;;;;;;;;14.20;99.90;;;;;;5015828;28;19935;-73
2022/09/23 08:01:59;;;;;;;;;;;14.20;99.90;;;;;;5015025;28;19929;-74
2022/09/23 08:04:28;;;;;;;;;;;14.10;99.90;;;;;;5032350;28;19928;-73
2022/09/23 08:06:58;;;;;;;;;;;14.10;99.90;;;;;;5036076;28;20520;-73
2022/09/23 08:09:27;;;;;;;;;;;14.00;99.90;;;;;;5032417;28;19958;-75
2022/09/23 08:11:55;;;;;;;;;;;13.90;99.90;;;;;;5048705;28;19975;-74
2022/09/23 08:14:22;;;;;;;;;;;13.90;99.90;;;;;;5049614;28;19987;-74
2022/09/23 08:16:49;;;;;;;;;;;13.80;99.90;;;;;;5049779;28;19955;-74
2022/09/23 08:19:17;;;;;;;;;;;13.80;99.90;;;;;;5057556;28;19929;-82
2022/09/23 08:21:45;;;;;;;;;;;13.70;99.90;;;;;;5042002;28;20361;-80
2022/09/23 08:24:16;;;;;;;;;;;13.70;99.90;;;;;;5048794;28;19928;-81
2022/09/23 08:26:43;;;;;;;;;;;13.70;99.90;;;;;;5047615;28;19939;-82
2022/09/23 08:29:12;;;;;;;;;;;13.60;99.90;;;;;;5029570;28;20382;-81
2022/09/23 08:31:39;;;;;;;;;;;13.60;99.90;;;;;;5043768;28;20011;-82
2022/09/23 08:34:07;;;;;;;;;;;13.60;99.90;;;;;;5028988;28;19960;-81
2022/09/23 08:36:34;;;;;;;;;;;13.60;99.90;;;;;;5043723;28;19983;-82
2022/09/23 08:39:02;;;;;;;;;;;13.50;99.90;;;;;;5045293;28;20309;-81
2022/09/23 08:41:38;;;;;;;;;;;13.50;99.90;;;;;;5045026;28;19951;-81
2022/09/23 08:44:11;;;;;;;;;;;13.40;99.90;;;;;;5042694;28;19929;-74
2022/09/23 08:46:43;;;;;;;;;;;13.30;99.90;;;;;;5025752;28;20177;-75
2022/09/23 08:49:17;;;;;;;;;;;13.30;99.90;;;;;;5029867;28;19935;-73
2022/09/23 08:51:46;;;;;;;;;;;13.10;99.90;;;;;;5045003;28;20035;-73
2022/09/23 08:54:14;;;;;;;;;;;13.00;99.90;;;;;;5024233;28;19933;-73
2022/09/23 08:56:44;;;;;;;;;;;13.00;99.90;;;;;;5047256;28;19940;-74
2022/09/23 08:59:18;;;;;;;;;;;12.80;99.90;;;;;;5046981;28;19928;-75
2022/09/23 09:01:46;;;;;;;;;;;12.80;99.90;;;;;;5030432;28;19937;-74
2022/09/23 09:04:17;;;;;;;;;;;12.70;99.90;;;;;;5050882;28;19936;-74
2022/09/23 09:06:48;;;;;;;;;;;12.60;99.90;;;;;;5048343;28;19933;-75
2022/09/23 09:09:22;;;;;;;;;;;12.60;99.90;;;;;;5047693;28;19956;-75
2022/09/23 09:11:53;;;;;;;;;;;12.50;99.90;;;;;;5032897;28;19994;-74
2022/09/23 09:14:24;;;;;;;;;;;12.50;99.90;;;;;;5045843;28;19929;-74
2022/09/23 09:16:57;;;;;;;;;;;12.40;99.90;;;;;;5047163;28;19975;-73
2022/09/23 09:19:38;;;;;;;;;;;12.40;99.90;;;;;;5050524;28;19942;-73
2022/09/23 09:22:12;;;;;;;;;;;12.40;99.90;;;;;;5045628;28;19937;-73
2022/09/23 09:24:42;;;;;;;;;;;12.40;99.90;;;;;;5050583;28;19975;-74
2022/09/23 09:27:13;;;;;;;;;;;12.40;99.90;;;;;;5052373;28;19929;-75
2022/09/23 09:29:43;;;;;;;;;;;12.40;99.90;;;;;;5018730;28;19928;-75
2022/09/23 09:32:16;;;;;;;;;;;12.40;99.90;;;;;;5039884;28;20035;-81
2022/09/23 09:34:46;;;;;;;;;;;12.40;99.90;;;;;;5036423;28;19929;-83
2022/09/23 09:37:17;;;;;;;;;;;12.40;99.90;;;;;;5050724;28;20454;-81
2022/09/23 09:39:45;;;;;;;;;;;12.30;99.90;;;;;;5023910;28;19933;-82
2022/09/23 09:42:17;;;;;;;;;;;12.30;99.90;;;;;;5052003;28;20284;-82
2022/09/23 09:44:49;;;;;;;;;;;12.30;99.90;;;;;;5036709;28;19999;-80
2022/09/23 09:47:28;;;;;;;;;;;12.40;99.90;;;;;;5035446;28;19929;-81
2022/09/23 09:49:57;;;;;;;;;;;12.40;99.90;;;;;;5047538;28;19936;-84
2022/09/23 09:52:28;;;;;;;;;;;12.40;99.90;;;;;;5051480;28;19939;-74
2022/09/23 09:54:59;;;;;;;;;;;12.50;99.90;;;;;;5053588;28;19936;-82
2022/09/23 09:57:31;;;;;;;;;;;12.50;99.90;;;;;;5047890;28;19928;-82
2022/09/23 09:59:58;;;;;;;;;;;12.60;99.90;;;;;;5049539;28;20424;-82
2022/09/23 10:02:29;;;;;;;;;;;12.60;99.90;;;;;;5051009;28;20347;-84
2022/09/23 10:05:01;;;;;;;;;;;12.60;99.90;;;;;;5050303;28;19928;-83
2022/09/23 10:07:31;;;;;;;;;;;12.70;99.90;;;;;;5049433;28;20277;-84
2022/09/23 10:10:19;;;;;;;;;;;12.70;99.90;;;;;;5051892;28;19951;-83
2022/09/23 10:12:52;;;;;;;;;;;12.70;99.90;;;;;;5062465;28;19967;-81
2022/09/23 10:15:29;;;;;;;;;;;12.80;99.90;;;;;;5050388;28;19935;-80
2022/09/23 10:18:00;;;;;;;;;;;12.80;99.90;;;;;;5015919;28;20361;-81
2022/09/23 10:20:35;;;;;;;;;;;12.70;99.90;;;;;;5041274;28;19928;-82
2022/09/23 10:23:06;;;;;;;;;;;12.70;99.90;;;;;;5051371;28;20312;-81
2022/09/23 10:25:35;;;;;;;;;;;12.70;99.90;;;;;;5049056;28;19929;-81
2022/09/23 10:28:40;;;;;;;;;;;12.60;99.90;;;;;;5052705;28;19966;-80
2022/09/23 10:31:09;;;;;;;;;;;12.60;99.90;;;;;;5048233;28;19975;-83
2022/09/23 10:33:54;;;;;;;;;;;12.60;99.90;;;;;;5051948;28;19936;-80
2022/09/23 10:36:21;;;;;;;;;;;12.70;99.90;;;;;;5051341;28;19929;-83
2022/09/23 10:38:51;;;;;;;;;;;12.70;99.90;;;;;;5043571;28;19929;-81
2022/09/23 10:47:25;;;;;;;;;;;13.00;99.90;;;;;;5033614;28;19929;-82
2022/09/23 10:50:32;;;;;;;;;;;13.10;99.90;;;;;;5032157;28;20019;-74
2022/09/23 10:53:04;;;;;;;;;;;13.30;99.90;;;;;;4970496;28;19930;-74
2022/09/23 10:55:40;;;;;;;;;;;13.40;99.90;;;;;;5041699;28;19929;-75
2022/09/23 10:58:29;;;;;;;;;;;13.50;99.90;;;;;;5047831;28;19933;-75
2022/09/23 11:01:06;;;;;;;;;;;13.60;99.90;;;;;;5047719;28;19992;-75
2022/09/23 11:04:18;;;;;;;;;;;13.70;99.90;;;;;;5051130;28;19929;-73
2022/09/23 11:06:58;;;;;;;;;;;13.80;99.90;;;;;;4942320;29;19930;-74
2022/09/23 11:09:33;;;;;;;;;;;14.00;99.90;;;;;;5031646;28;20031;-75
2022/09/23 11:12:12;;;;;;;;;;;14.10;99.90;;;;;;5052033;28;19928;-72
2022/09/23 11:14:58;;;;;;;;;;;14.20;99.90;;;;;;5048702;28;19928;-79
2022/09/23 11:17:42;;;;;;;;;;;14.40;99.90;;;;;;5044195;28;19932;-79
2022/09/23 11:20:24;;;;;;;;;;;14.40;99.90;;;;;;5049863;28;20027;-82
2022/09/23 11:23:23;;;;;;;;;;;14.50;99.90;;;;;;5014061;28;19929;-81
2022/09/23 11:25:55;;;;;;;;;;;14.60;99.90;;;;;;5021503;28;20033;-82
2022/09/23 11:28:41;;;;;;;;;;;14.70;99.90;;;;;;5020572;28;20397;-81
2022/09/23 11:31:19;;;;;;;;;;;14.80;99.90;;;;;;5049540;28;20007;-74
2022/09/23 11:34:01;;;;;;;;;;;14.80;99.90;;;;;;5047836;28;19929;-74
2022/09/23 11:36:33;;;;;;;;;;;14.80;99.90;;;;;;5048594;28;19935;-75
2022/09/23 11:39:03;;;;;;;;;;;14.90;99.90;;;;;;5051197;28;20389;-73
2022/09/23 11:41:32;;;;;;;;;;;14.90;99.90;;;;;;5039802;28;19929;-73
2022/09/23 11:44:03;;;;;;;;;;;15.00;99.90;;;;;;5043058;28;20027;-76
2022/09/23 11:46:34;;;;;;;;;;;15.20;99.90;;;;;;5021390;28;19936;-77
2022/09/23 11:49:09;;;;;;;;;;;15.40;99.90;;;;;;5049000;28;19975;-77
2022/09/23 11:51:42;;;;;;;;;;;15.50;99.90;;;;;;5018181;28;20062;-78
2022/09/23 11:54:13;;;;;;;;;;;15.50;99.90;;;;;;5046989;28;19929;-77
2022/09/23 11:56:44;;;;;;;;;;;15.60;99.90;;;;;;5032386;28;19932;-75
2022/09/23 11:59:15;;;;;;;;;;;15.60;99.90;;;;;;5051215;28;19929;-78
2022/09/23 12:01:52;;;;;;;;;;;15.70;99.90;;;;;;5043410;28;19935;-83
2022/09/23 12:04:29;;;;;;;;;;;15.90;99.90;;;;;;5043858;28;20038;-76
2022/09/23 12:07:00;;;;;;;;;;;16.10;99.90;;;;;;5043200;28;20323;-80
2022/09/23 12:09:31;;;;;;;;;;;16.20;99.90;;;;;;5050406;28;20313;-83
2022/09/23 12:12:04;;;;;;;;;;;16.30;99.90;;;;;;5045522;28;19956;-82
2022/09/23 12:14:37;;;;;;;;;;;16.40;99.90;;;;;;5061683;28;19936;-76
2022/09/23 12:17:19;;;;;;;;;;;16.60;99.90;;;;;;5032027;28;19928;-78
2022/09/23 12:20:13;;;;;;;;;;;16.70;99.90;;;;;;5048367;28;19929;-75
2022/09/23 12:22:51;;;;;;;;;;;16.90;99.90;;;;;;5049136;28;19928;-76
2022/09/23 12:25:34;;;;;;;;;;;17.20;99.90;;;;;;5046620;28;20387;-75
2022/09/23 12:28:03;;;;;;;;;;;17.50;99.90;;;;;;5029091;28;19976;-75
2022/09/23 12:30:32;;;;;;;;;;;17.60;99.90;;;;;;5049576;28;19929;-75
2022/09/23 12:33:08;;;;;;;;;;;17.70;99.90;;;;;;5052186;28;19937;-76
2022/09/23 12:35:40;;;;;;;;;;;17.70;99.90;;;;;;5044287;28;19979;-76
2022/09/23 12:38:15;;;;;;;;;;;17.80;99.90;;;;;;5046418;28;20392;-76
2022/09/23 12:40:43;;;;;;;;;;;17.80;99.90;;;;;;5047042;28;19937;-75
2022/09/23 12:43:17;;;;;;;;;;;17.70;99.90;;;;;;5046063;28;20026;-74
2022/09/23 12:45:44;;;;;;;;;;;17.70;99.90;;;;;;5039459;28;19929;-84
2022/09/23 12:48:44;;;;;;;;;;;17.60;99.90;;;;;;5039539;28;19936;-82
2022/09/23 12:51:22;;;;;;;;;;;17.40;99.90;;;;;;5040772;28;19929;-82
2022/09/23 12:54:22;;;;;;;;;;;17.20;99.90;;;;;;5044061;28;19952;-83
2022/09/23 12:57:06;;;;;;;;;;;17.00;99.90;;;;;;5040958;28;19943;-83
2022/09/23 12:59:59;;;;;;;;;;;16.90;99.90;;;;;;5043089;28;20368;-83
2022/09/23 13:02:29;;;;;;;;;;;16.80;99.90;;;;;;5041424;28;20385;-75
2022/09/23 13:07:50;;;;;;;;;;;16.80;99.90;;;;;;5045287;28;20685;-76
2022/09/23 13:10:23;;;;;;;;;;;16.90;99.90;;;;;;5043379;28;19936;-77
2022/09/23 13:12:51;;;;;;;;;;;16.90;99.90;;;;;;5021442;28;19929;-74
2022/09/23 13:15:27;;;;;;;;;;;16.90;99.90;;;;;;5041392;28;19936;-76
2022/09/23 13:18:39;;;;;;;;;;;16.80;99.90;;;;;;5036749;28;19929;-82
2022/09/23 13:21:17;;;;;;;;;;;16.70;99.90;;;;;;5028277;28;19933;-75
2022/09/23 13:24:18;;;;;;;;;;;16.50;99.90;;;;;;5043108;28;19949;-75
2022/09/23 13:26:46;;;;;;;;;;;16.30;99.90;;;;;;5040505;28;19929;-74
2022/09/23 13:29:16;;;;;;;;;;;16.10;99.90;;;;;;5049599;28;19935;-74
2022/09/23 13:31:44;;;;;;;;;;;15.90;99.90;;;;;;5047016;28;19929;-73
2022/09/23 13:34:15;;;;;;;;;;;15.70;99.90;;;;;;5047783;28;19983;-74
2022/09/23 13:36:44;;;;;;;;;;;15.70;99.90;;;;;;5049376;28;19970;-76
2022/09/23 13:39:15;;;;;;;;;;;15.50;99.90;;;;;;5030063;28;19983;-74
2022/09/23 13:41:45;;;;;;;;;;;15.50;99.90;;;;;;5047237;28;19929;-74
2022/09/23 13:44:18;;;;;;;;;;;15.50;99.90;;;;;;5053044;28;20415;-74
2022/09/23 13:46:49;;;;;;;;;;;15.40;99.90;;;;;;5052969;28;20290;-74
2022/09/23 13:49:23;;;;;;;;;;;15.50;99.90;;;;;;5026110;28;19979;-79
2022/09/23 13:51:52;;;;;;;;;;;15.50;99.90;;;;;;5047188;28;19932;-80
2022/09/23 13:54:29;;;;;;;;;;;15.50;99.90;;;;;;4954442;28;19937;-80
2022/09/23 13:56:58;;;;;;;;;;;15.60;99.90;;;;;;4993067;28;19936;-80
2022/09/23 13:59:27;;;;;;;;;;;15.70;99.90;;;;;;4991408;28;19930;-79
2022/09/23 14:02:05;;;;;;;;;;;15.70;99.90;;;;;;4990897;28;19934;-74
2022/09/23 14:04:32;;;;;;;;;;;15.70;99.90;;;;;;4990818;28;19937;-73
2022/09/23 14:06:59;;;;;;;;;;;15.60;99.90;;;;;;4991411;28;19930;-73
2022/09/23 14:09:27;;;;;;;;;;;15.50;99.90;;;;;;4990809;28;19938;-75
2022/09/23 14:11:55;;;;;;;;;;;15.40;99.90;;;;;;4971760;28;19929;-73
2022/09/23 14:14:24;;;;;;;;;;;15.20;99.90;;;;;;4992512;28;19933;-75
2022/09/23 14:16:52;;;;;;;;;;;15.10;99.90;;;;;;4978043;28;20432;-75
2022/09/23 14:19:22;;;;;;;;;;;14.90;99.90;;;;;;4994605;28;19930;-73
2022/09/23 14:21:50;;;;;;;;;;;14.70;99.90;;;;;;4991090;28;19930;-73
2022/09/23 14:24:19;;;;;;;;;;;14.60;99.90;;;;;;4992949;28;20064;-73
2022/09/23 14:26:48;;;;;;;;;;;14.50;99.90;;;;;;4991407;28;19940;-74
2022/09/23 14:29:18;;;;;;;;;;;14.40;99.90;;;;;;4991665;28;20209;-75
2022/09/23 14:31:56;;;;;;;;;;;14.20;99.90;;;;;;4974730;28;19977;-73
2022/09/23 14:34:47;;;;;;;;;;;14.20;99.90;;;;;;5008303;28;19976;-74
2022/09/23 14:40:13;;;;;;;;;;;14.10;99.90;;;;;;4979251;28;19930;-74
2022/09/23 14:42:43;;;;;;;;;;;14.00;99.90;;;;;;4975547;28;19930;-79
2022/09/23 14:45:14;;;;;;;;;;;13.90;99.90;;;;;;4990584;28;20383;-80
2022/09/23 14:47:46;;;;;;;;;;;13.80;99.90;;;;;;4979333;28;20406;-79
2022/09/23 14:50:38;;;;;;;;;;;13.80;99.90;;;;;;4978394;28;19980;-79
2022/09/23 14:53:21;;;;;;;;;;;13.70;99.90;;;;;;4992860;28;20406;-73
2022/09/23 14:55:51;;;;;;;;;;;13.70;99.90;;;;;;4976477;28;20401;-74
2022/09/23 14:58:22;;;;;;;;;;;13.60;99.90;;;;;;4974638;28;20306;-72
2022/09/23 15:00:52;;;;;;;;;;;13.50;99.90;;;;;;4974889;28;19930;-72